עמוד ראשי
METAR-TAF:

METAR-TAF

שדות תעופה :

Clayton, ניו מקסיקו, ארצות הברית

קו רוחב: 36-26-54N, קו אורך: 103-09-11W, גובה: 1513מטר

תצפית מזג אוויר נוכחית

הדו"ח נערך לפני 1 שעות ו 5דקות, בשעה 01:55 UTC
רוח 9קשר מכיוון דרום-מזרח
טמפרטורת 25 צלסיוס
לחות 39%
לחץ 1026 hPa
ראות: 14.5קילומטר
שמיים נקיים

METAR: KCAO 250155Z AUTO 13009KT 9SM CLR 25/10 A3031 RMK AO2 SLP192 T02500100

זמן: 21:00 (03:00 UTC)


TAF: חסר

תצפיות ותחזיות מזג אוויר לגבי יותר מ- 4,000 שדות תעופה ברחבי העולם. דוחות METAR ו- TAF.

התחנות הזמינות מסומנות בנקודות צהובות ואדומות על גבי המפה.

העבר את העכבר לנקודה הצבעונית על מנת לראות את שם התחנה.

לאחר מכן, לחץ כדי לראות את תוכן ואת תחזיות מזג האוויר.

כדי לשנות את המפה: לחץ על הכפתורים הירוקים עם הפלוס השחור כדי להתקרב; על הכפתור הירוק עם המקף כדי להתרחק; או בחיצים הירוקים למפות סמוכות.


METAR-TAF: